createdAt,value
2017-11-19T00:00:41.548Z,85.67
2017-11-19T00:01:45.232Z,85.65
2017-11-19T00:02:48.924Z,85.41
2017-11-19T00:03:52.701Z,84.93
2017-11-19T00:04:56.392Z,84.60
2017-11-19T00:06:00.359Z,84.68
2017-11-19T00:07:04.079Z,84.69
2017-11-19T00:08:07.844Z,84.84
2017-11-19T00:09:11.547Z,84.78
2017-11-19T00:10:15.235Z,84.70
2017-11-19T00:11:19.007Z,84.65
2017-11-19T00:12:22.995Z,84.98
2017-11-19T00:13:26.676Z,85.00
2017-11-19T00:14:30.395Z,85.72
2017-11-19T00:15:34.112Z,85.93
2017-11-19T00:16:37.792Z,85.67
2017-11-19T00:17:41.484Z,85.62
2017-11-19T00:18:45.488Z,85.65
2017-11-19T00:19:49.168Z,85.48
2017-11-19T00:20:52.848Z,85.42
2017-11-19T00:21:56.562Z,85.69
2017-11-19T00:23:03.594Z,85.68
2017-11-19T00:24:08.187Z,85.86
2017-11-19T00:25:12.127Z,85.67
2017-11-19T00:26:16.130Z,85.11
2017-11-19T00:27:19.822Z,84.34
2017-11-19T00:28:23.865Z,84.31
2017-11-19T00:29:27.526Z,84.38
2017-11-19T00:30:31.266Z,84.15
2017-11-19T00:31:35.300Z,83.89
2017-11-19T00:32:39.009Z,83.74
2017-11-19T00:33:42.680Z,84.01
2017-11-19T00:34:46.392Z,84.45
2017-11-19T00:35:50.093Z,84.51
2017-11-19T00:36:53.756Z,84.39
2017-11-19T00:37:57.767Z,84.13
2017-11-19T00:39:01.477Z,83.70
2017-11-19T00:40:05.226Z,83.62
2017-11-19T00:41:08.939Z,83.65
2017-11-19T00:42:12.705Z,83.37
2017-11-19T00:43:16.414Z,83.83
2017-11-19T00:44:20.380Z,83.97
2017-11-19T00:45:24.876Z,83.90
2017-11-19T00:46:28.599Z,84.93
2017-11-19T00:47:32.251Z,85.57
2017-11-19T00:48:35.950Z,85.83
2017-11-19T00:49:39.655Z,85.85
2017-11-19T00:50:43.645Z,85.73
2017-11-19T00:51:47.351Z,85.86
2017-11-19T00:52:51.026Z,86.05
2017-11-19T00:53:54.727Z,85.55
2017-11-19T00:54:58.680Z,85.34
2017-11-19T00:56:02.447Z,85.83
2017-11-19T00:57:06.431Z,86.35
2017-11-19T00:58:10.115Z,86.37
2017-11-19T00:59:13.941Z,85.96
2017-11-19T01:00:17.603Z,85.94
2017-11-19T01:01:21.855Z,86.23
2017-11-19T01:02:25.559Z,86.54
2017-11-19T01:03:29.629Z,86.52
2017-11-19T01:04:33.344Z,86.24
2017-11-19T01:05:37.108Z,85.83
2017-11-19T01:06:40.812Z,85.57
2017-11-19T01:07:44.539Z,85.47
2017-11-19T01:08:48.373Z,85.36
2017-11-19T01:09:52.160Z,85.19
2017-11-19T01:10:55.929Z,84.88
2017-11-19T01:11:59.735Z,84.82
2017-11-19T01:13:03.571Z,85.38
2017-11-19T01:14:07.264Z,85.57
2017-11-19T01:15:11.602Z,86.07
2017-11-19T01:16:15.220Z,86.38
2017-11-19T01:17:19.038Z,86.36
2017-11-19T01:18:22.819Z,86.49
2017-11-19T01:19:26.571Z,86.56
2017-11-19T01:20:30.445Z,87.03
2017-11-19T01:21:34.382Z,87.05
2017-11-19T01:22:38.098Z,87.39
2017-11-19T01:23:41.799Z,87.43
2017-11-19T01:24:45.468Z,87.86
2017-11-19T01:25:49.169Z,88.27
2017-11-19T01:26:52.841Z,88.30
2017-11-19T01:27:56.803Z,88.66
2017-11-19T01:29:00.436Z,88.46
2017-11-19T01:30:04.150Z,88.33
2017-11-19T01:31:07.844Z,88.12
2017-11-19T01:32:11.505Z,88.70
2017-11-19T01:33:15.188Z,88.80
2017-11-19T01:34:19.147Z,88.91
2017-11-19T01:35:22.797Z,88.03
2017-11-19T01:36:27.138Z,88.21
2017-11-19T01:37:30.737Z,88.92
2017-11-19T01:38:34.563Z,88.91
2017-11-19T01:39:38.248Z,88.60
2017-11-19T01:40:41.954Z,88.50
2017-11-19T01:41:45.706Z,88.38
2017-11-19T01:42:49.493Z,87.82
2017-11-19T01:43:53.272Z,88.24
2017-11-19T01:44:57.067Z,88.37
2017-11-19T01:46:00.842Z,88.33
2017-11-19T01:47:05.718Z,87.80
2017-11-19T01:48:09.574Z,86.26
2017-11-19T01:49:13.351Z,86.03
2017-11-19T01:50:17.108Z,85.98
2017-11-19T01:51:20.854Z,85.96
2017-11-19T01:52:24.611Z,85.58
2017-11-19T01:53:28.663Z,85.17
2017-11-19T01:54:32.471Z,85.17
2017-11-19T01:55:36.662Z,85.25
2017-11-19T01:56:40.408Z,85.28
2017-11-19T01:57:44.167Z,85.22
2017-11-19T01:58:47.952Z,85.00
2017-11-19T01:59:51.995Z,85.36
2017-11-19T02:00:55.773Z,85.66
2017-11-19T02:01:59.557Z,85.67
2017-11-19T02:03:03.345Z,85.65
2017-11-19T02:04:07.192Z,85.29
2017-11-19T02:05:10.946Z,85.43
2017-11-19T02:06:15.025Z,85.55
2017-11-19T02:07:18.785Z,85.49
2017-11-19T02:08:22.609Z,85.26
2017-11-19T02:09:26.410Z,84.75
2017-11-19T02:10:30.133Z,85.04
2017-11-19T02:11:34.401Z,85.49
2017-11-19T02:12:38.391Z,85.37
2017-11-19T02:13:42.231Z,85.19
2017-11-19T02:14:46.008Z,85.03
2017-11-19T02:15:49.811Z,85.59
2017-11-19T02:16:53.543Z,85.83
2017-11-19T02:17:57.271Z,86.04
2017-11-19T02:19:01.221Z,86.68
2017-11-19T02:20:04.930Z,86.96
2017-11-19T02:21:08.621Z,86.38
2017-11-19T02:22:12.306Z,86.55
2017-11-19T02:23:15.973Z,86.57
2017-11-19T02:24:19.734Z,86.19
2017-11-19T02:25:23.766Z,86.76
2017-11-19T02:26:27.439Z,87.21
2017-11-19T02:27:31.190Z,87.34
2017-11-19T02:28:34.886Z,87.57
2017-11-19T02:29:38.642Z,86.93
2017-11-19T02:30:52.157Z,86.90
2017-11-19T02:31:55.905Z,86.93
2017-11-19T02:32:59.710Z,86.74
2017-11-19T02:34:03.534Z,86.33
2017-11-19T02:35:07.277Z,86.01
2017-11-19T02:36:11.070Z,86.24
2017-11-19T02:37:15.181Z,86.52
2017-11-19T02:38:19.095Z,85.98
2017-11-19T02:39:22.872Z,85.45
2017-11-19T02:40:27.432Z,85.71
2017-11-19T02:41:31.205Z,86.21
2017-11-19T02:42:35.655Z,86.79
2017-11-19T02:43:39.729Z,85.43
2017-11-19T02:44:43.700Z,86.07
2017-11-19T02:45:47.501Z,86.79
2017-11-19T02:46:51.333Z,86.34
2017-11-19T02:47:55.134Z,86.69
2017-11-19T02:48:59.130Z,87.83
2017-11-19T02:50:03.226Z,88.23
2017-11-19T02:51:07.043Z,89.23
2017-11-19T02:52:10.819Z,89.38
2017-11-19T02:53:14.610Z,89.06
2017-11-19T02:54:18.389Z,88.78
2017-11-19T02:55:22.162Z,88.74
2017-11-19T02:56:26.220Z,88.20
2017-11-19T02:57:29.971Z,87.52
2017-11-19T02:58:33.747Z,88.11
2017-11-19T02:59:37.554Z,87.71
2017-11-19T03:00:41.554Z,87.63
2017-11-19T03:01:45.291Z,87.63
2017-11-19T03:02:49.350Z,87.04
2017-11-19T03:03:53.143Z,85.64
2017-11-19T03:04:56.915Z,86.12
2017-11-19T03:06:00.672Z,86.57
2017-11-19T03:07:04.475Z,86.27
2017-11-19T03:08:08.235Z,85.79
2017-11-19T03:09:12.142Z,84.94
2017-11-19T03:10:15.872Z,84.26
2017-11-19T03:11:19.590Z,84.53
2017-11-19T03:12:23.286Z,85.10
2017-11-19T03:13:26.969Z,85.04
2017-11-19T03:14:30.704Z,84.92
2017-11-19T03:15:34.520Z,85.27
2017-11-19T03:16:38.350Z,84.98
2017-11-19T03:17:42.263Z,84.85
2017-11-19T03:18:46.030Z,84.81
2017-11-19T03:19:49.827Z,84.60
2017-11-19T03:20:53.573Z,84.21
2017-11-19T03:21:57.753Z,83.57
2017-11-19T03:23:01.591Z,83.80
2017-11-19T03:24:05.452Z,83.77
2017-11-19T03:25:09.244Z,83.62
2017-11-19T03:26:12.945Z,83.44
2017-11-19T03:27:16.755Z,84.11
2017-11-19T03:28:20.709Z,84.40
2017-11-19T03:29:24.393Z,84.45
2017-11-19T03:30:28.261Z,84.04
2017-11-19T03:31:31.972Z,84.63
2017-11-19T03:32:35.722Z,85.37
2017-11-19T03:33:39.458Z,85.69
2017-11-19T03:34:43.562Z,85.77
2017-11-19T03:35:47.304Z,85.76
2017-11-19T03:36:51.011Z,85.47
2017-11-19T03:37:54.729Z,85.25
2017-11-19T03:38:58.528Z,85.13
2017-11-19T03:40:02.253Z,84.95
2017-11-19T03:41:06.342Z,84.76
2017-11-19T03:42:10.126Z,84.65
2017-11-19T03:43:13.865Z,84.94
2017-11-19T03:44:17.628Z,85.30
2017-11-19T03:45:21.408Z,85.46
2017-11-19T03:46:25.171Z,85.39
2017-11-19T03:47:29.214Z,85.62
2017-11-19T03:48:32.996Z,85.85
2017-11-19T03:49:36.702Z,86.25
2017-11-19T03:50:40.420Z,86.18
2017-11-19T03:51:44.127Z,86.31
2017-11-19T03:52:48.699Z,86.01
2017-11-19T03:53:52.726Z,86.16
2017-11-19T03:54:56.465Z,86.15
2017-11-19T03:56:00.163Z,86.01
2017-11-19T03:57:03.779Z,85.72
2017-11-19T03:58:07.378Z,85.50
2017-11-19T03:59:11.059Z,85.76
2017-11-19T04:00:14.947Z,85.98
2017-11-19T04:01:18.540Z,86.53
2017-11-19T04:02:22.156Z,86.58
2017-11-19T04:03:25.915Z,86.63
2017-11-19T04:04:29.611Z,86.78
2017-11-19T04:05:33.379Z,86.85
2017-11-19T04:06:37.498Z,86.77
2017-11-19T04:07:41.295Z,86.52
2017-11-19T04:08:45.066Z,86.08
2017-11-19T04:09:48.905Z,86.42
2017-11-19T04:10:52.759Z,86.65
2017-11-19T04:11:56.538Z,86.48
2017-11-19T04:13:00.310Z,86.29
2017-11-19T04:14:04.083Z,86.34
2017-11-19T04:15:07.925Z,86.31
2017-11-19T04:16:11.711Z,86.23
2017-11-19T04:17:15.500Z,86.59
2017-11-19T04:18:19.563Z,86.98
2017-11-19T04:19:23.410Z,87.32
2017-11-19T04:20:27.245Z,87.40
2017-11-19T04:21:31.057Z,87.61
2017-11-19T04:22:34.872Z,87.67
2017-11-19T04:23:38.685Z,87.59
2017-11-19T04:24:42.842Z,87.76
2017-11-19T04:25:47.407Z,87.81
2017-11-19T04:26:51.172Z,88.02
2017-11-19T04:27:55.129Z,88.04
2017-11-19T04:28:58.937Z,88.34
2017-11-19T04:30:02.781Z,88.57
2017-11-19T04:31:06.824Z,88.40
2017-11-19T04:32:10.586Z,88.43
2017-11-19T04:33:14.405Z,88.60
2017-11-19T04:34:18.202Z,88.54
2017-11-19T04:35:21.974Z,88.05
2017-11-19T04:36:25.731Z,88.43
2017-11-19T04:37:29.831Z,88.56
2017-11-19T04:38:33.600Z,88.68
2017-11-19T04:39:37.384Z,88.59
2017-11-19T04:40:41.231Z,88.00
2017-11-19T04:41:45.061Z,88.37
2017-11-19T04:42:48.824Z,88.27
2017-11-19T04:43:52.888Z,88.20
2017-11-19T04:44:56.666Z,88.28
2017-11-19T04:46:00.413Z,88.54
2017-11-19T04:47:04.254Z,88.61
2017-11-19T04:48:08.038Z,88.53
2017-11-19T04:49:11.843Z,88.45
2017-11-19T04:50:15.668Z,88.44
2017-11-19T04:51:19.392Z,88.56
2017-11-19T04:52:23.230Z,88.23
2017-11-19T04:53:27.023Z,87.84
2017-11-19T04:54:30.788Z,88.27
2017-11-19T04:55:34.559Z,87.64
2017-11-19T04:56:38.684Z,87.58
2017-11-19T04:57:42.495Z,87.86
2017-11-19T04:58:46.313Z,87.95
2017-11-19T04:59:50.116Z,87.86
2017-11-19T05:15:18.270Z,97.14
2017-11-19T05:16:21.958Z,96.41
2017-11-19T05:17:25.583Z,94.96
2017-11-19T05:18:29.131Z,94.12
2017-11-19T05:19:33.820Z,92.44
2017-11-19T05:20:37.648Z,91.92
2017-11-19T05:21:41.389Z,90.83
2017-11-19T05:22:45.083Z,90.58
2017-11-19T05:23:48.949Z,90.46
2017-11-19T05:24:52.537Z,89.86
2017-11-19T05:25:56.231Z,90.08
2017-11-19T05:27:00.188Z,89.71
2017-11-19T05:28:03.914Z,89.26
2017-11-19T05:29:07.617Z,88.74
2017-11-19T05:30:11.174Z,88.97
2017-11-19T05:31:14.717Z,89.05
2017-11-19T05:32:18.447Z,88.86
2017-11-19T05:33:22.509Z,88.86
2017-11-19T05:34:26.372Z,88.57
2017-11-19T05:35:30.666Z,88.68
2017-11-19T05:36:34.362Z,88.74
2017-11-19T05:37:38.064Z,88.35
2017-11-19T05:38:41.739Z,88.28
2017-11-19T05:39:45.738Z,88.21
2017-11-19T05:40:49.441Z,87.76
2017-11-19T05:41:53.080Z,87.44
2017-11-19T05:42:56.700Z,86.86
2017-11-19T05:44:00.297Z,86.68
2017-11-19T05:45:03.941Z,86.61
2017-11-19T05:46:07.860Z,87.14
2017-11-19T05:47:11.470Z,87.85
2017-11-19T05:48:15.081Z,87.98
2017-11-19T05:49:18.732Z,88.17
2017-11-19T05:50:22.341Z,87.58
2017-11-19T05:51:25.949Z,87.43
2017-11-19T05:52:29.960Z,87.15
2017-11-19T05:53:34.029Z,86.88
2017-11-19T05:54:37.720Z,87.09
2017-11-19T05:55:41.456Z,86.83
2017-11-19T05:56:45.276Z,87.03
2017-11-19T05:57:48.974Z,86.81
2017-11-19T05:58:53.031Z,86.64
2017-11-19T05:59:56.754Z,86.96
2017-11-19T06:01:00.483Z,87.04
2017-11-19T06:02:04.336Z,86.76
2017-11-19T06:03:08.088Z,86.67
2017-11-19T06:04:11.830Z,86.64
2017-11-19T06:05:15.835Z,86.02
2017-11-19T06:06:19.604Z,86.26
2017-11-19T06:07:23.336Z,86.51
2017-11-19T06:08:27.038Z,86.96
2017-11-19T06:09:30.747Z,87.18
2017-11-19T06:10:34.450Z,87.31
2017-11-19T06:11:38.485Z,87.37
2017-11-19T06:12:42.189Z,87.39
2017-11-19T06:13:45.875Z,87.27
2017-11-19T06:14:49.664Z,87.35
2017-11-19T06:15:53.362Z,86.88
2017-11-19T06:16:57.067Z,87.91
2017-11-19T06:18:01.087Z,88.26
2017-11-19T06:19:04.872Z,88.32
2017-11-19T06:20:08.648Z,87.87
2017-11-19T06:21:12.367Z,87.88
2017-11-19T06:22:16.135Z,87.79
2017-11-19T06:23:19.871Z,88.09
2017-11-19T06:24:23.860Z,87.95
2017-11-19T06:25:27.674Z,88.05
2017-11-19T06:26:31.335Z,88.11
2017-11-19T06:27:35.028Z,88.25
2017-11-19T06:28:38.754Z,88.12
2017-11-19T06:29:42.491Z,88.05
2017-11-19T06:30:46.672Z,87.82
2017-11-19T06:31:50.566Z,87.58
2017-11-19T06:32:54.316Z,87.44
2017-11-19T06:33:58.053Z,87.33
2017-11-19T06:35:01.862Z,87.28
2017-11-19T06:36:05.626Z,87.17
2017-11-19T06:37:09.712Z,86.78
2017-11-19T06:38:13.477Z,86.88
2017-11-19T06:39:17.792Z,86.93
2017-11-19T06:40:21.583Z,86.99
2017-11-19T06:41:25.224Z,87.05
2017-11-19T06:42:28.869Z,87.00
2017-11-19T06:43:33.012Z,87.15
2017-11-19T06:44:37.344Z,87.71
2017-11-19T06:45:41.099Z,87.88
2017-11-19T06:46:44.809Z,87.67
2017-11-19T06:47:48.483Z,87.89
2017-11-19T06:48:52.517Z,88.22
2017-11-19T06:49:56.221Z,87.60
2017-11-19T06:50:59.913Z,87.37
2017-11-19T06:52:03.739Z,87.47
2017-11-19T06:53:07.769Z,87.42
2017-11-19T06:54:11.802Z,87.38
2017-11-19T06:55:15.944Z,87.51
2017-11-19T06:56:19.778Z,87.59
2017-11-19T06:57:23.559Z,87.40
2017-11-19T06:58:27.372Z,87.41
2017-11-19T06:59:31.160Z,88.02
2017-11-19T07:00:34.977Z,87.72
2017-11-19T07:01:39.122Z,87.39
2017-11-19T07:02:42.903Z,87.73
2017-11-19T07:03:46.667Z,87.63
2017-11-19T07:04:50.402Z,88.03
2017-11-19T07:05:54.171Z,88.01
2017-11-19T07:06:58.293Z,87.79
2017-11-19T07:08:02.448Z,87.33
2017-11-19T07:09:06.211Z,87.11
2017-11-19T07:10:09.896Z,87.50
2017-11-19T07:11:13.584Z,87.95
2017-11-19T07:12:17.212Z,87.57
2017-11-19T07:13:20.861Z,87.49
2017-11-19T07:14:24.931Z,86.98
2017-11-19T07:15:28.552Z,87.16
2017-11-19T07:16:32.413Z,87.33
2017-11-19T07:17:36.189Z,87.61
2017-11-19T07:18:39.896Z,87.52
2017-11-19T07:19:43.612Z,87.25
2017-11-19T07:20:47.738Z,87.04
2017-11-19T07:21:51.373Z,86.61
2017-11-19T07:22:54.923Z,86.47
2017-11-19T07:23:58.616Z,86.20
2017-11-19T07:25:02.313Z,86.65
2017-11-19T07:26:05.944Z,86.44
2017-11-19T07:27:10.297Z,86.62
2017-11-19T07:28:14.259Z,86.60
2017-11-19T07:29:18.202Z,86.98
2017-11-19T07:30:22.154Z,87.10
2017-11-19T07:31:26.081Z,87.16
2017-11-19T07:32:29.943Z,87.20
2017-11-19T07:33:34.239Z,87.26
2017-11-19T07:34:38.209Z,88.54
2017-11-19T07:35:41.984Z,88.89
2017-11-19T07:36:45.917Z,88.67
2017-11-19T07:37:49.764Z,88.53
2017-11-19T07:38:53.668Z,88.53
2017-11-19T07:39:58.253Z,88.40
2017-11-19T07:41:02.066Z,87.66
2017-11-19T07:42:05.944Z,87.42
2017-11-19T07:43:10.291Z,87.14
2017-11-19T07:44:14.093Z,86.88
2017-11-19T07:45:17.924Z,87.11
2017-11-19T07:46:22.331Z,87.67
2017-11-19T07:47:26.161Z,87.72
2017-11-19T07:48:29.991Z,87.52
2017-11-19T07:49:33.726Z,87.60
2017-11-19T07:50:37.511Z,87.18
2017-11-19T07:51:41.313Z,87.30
2017-11-19T07:52:45.536Z,87.57
2017-11-19T07:53:49.312Z,87.42
2017-11-19T07:54:53.185Z,87.05
2017-11-19T07:55:56.971Z,87.01
2017-11-19T07:57:00.786Z,87.15
2017-11-19T07:58:04.651Z,87.38
2017-11-19T07:59:08.843Z,86.53
2017-11-19T08:00:12.638Z,86.82
2017-11-19T08:01:16.473Z,86.76
2017-11-19T08:02:20.258Z,87.35
2017-11-19T08:03:24.100Z,87.72
2017-11-19T08:04:27.830Z,87.64
2017-11-19T08:05:32.011Z,87.38
2017-11-19T08:06:35.811Z,87.47
2017-11-19T08:07:39.664Z,87.71
2017-11-19T08:08:43.501Z,87.77
2017-11-19T08:09:47.353Z,87.55
2017-11-19T08:10:51.280Z,87.26
2017-11-19T08:11:55.384Z,87.24
2017-11-19T08:12:59.356Z,86.94
2017-11-19T08:14:03.459Z,86.83
2017-11-19T08:15:07.497Z,87.06
2017-11-19T08:16:11.297Z,87.15
2017-11-19T08:17:16.153Z,87.20
2017-11-19T08:18:20.471Z,87.05
2017-11-19T08:19:24.410Z,87.01
2017-11-19T08:20:28.248Z,87.24
2017-11-19T08:21:32.136Z,87.25
2017-11-19T08:22:35.915Z,86.91
2017-11-19T08:23:40.192Z,86.93
2017-11-19T08:24:44.012Z,87.05
2017-11-19T08:25:47.841Z,86.50
2017-11-19T08:26:51.520Z,86.43
2017-11-19T08:27:55.316Z,86.83
2017-11-19T08:28:59.788Z,86.28
2017-11-19T08:30:03.901Z,86.26
2017-11-19T08:31:07.696Z,86.11
2017-11-19T08:32:11.419Z,85.85
2017-11-19T08:33:15.409Z,85.58
2017-11-19T08:34:19.288Z,85.29
2017-11-19T08:35:23.112Z,85.39
2017-11-19T08:36:27.375Z,85.26
2017-11-19T08:37:31.179Z,85.24
2017-11-19T08:38:35.044Z,84.93
2017-11-19T08:39:38.871Z,84.75
2017-11-19T08:40:42.703Z,84.45
2017-11-19T08:41:46.499Z,84.07
2017-11-19T08:42:50.672Z,84.92
2017-11-19T08:43:54.478Z,85.55
2017-11-19T08:44:58.274Z,84.61
2017-11-19T08:46:03.903Z,84.48
2017-11-19T08:47:07.745Z,84.39
2017-11-19T08:48:11.517Z,84.67
2017-11-19T08:49:15.197Z,84.28
2017-11-19T08:50:18.870Z,84.40
2017-11-19T08:51:22.518Z,84.34
2017-11-19T08:52:26.203Z,84.50
2017-11-19T08:53:29.834Z,83.80
2017-11-19T08:54:33.727Z,84.08
2017-11-19T08:55:37.392Z,84.24
2017-11-19T08:56:41.106Z,84.54
2017-11-19T08:57:44.802Z,84.99
2017-11-19T08:58:48.532Z,84.52
2017-11-19T08:59:52.227Z,84.98
2017-11-19T09:00:56.278Z,85.02
2017-11-19T09:02:00.126Z,85.35
2017-11-19T09:03:03.948Z,84.94
2017-11-19T09:04:07.761Z,84.39
2017-11-19T09:05:11.579Z,84.34
2017-11-19T09:06:15.395Z,84.27
2017-11-19T09:07:19.538Z,84.20
2017-11-19T09:08:23.326Z,84.25
2017-11-19T09:09:27.114Z,84.85
2017-11-19T09:10:30.909Z,85.04
2017-11-19T09:11:34.736Z,84.76
2017-11-19T09:12:38.642Z,84.84
2017-11-19T09:13:42.734Z,84.85
2017-11-19T09:14:46.535Z,84.89
2017-11-19T09:15:50.412Z,84.30
2017-11-19T09:16:54.182Z,84.65
2017-11-19T09:17:57.986Z,84.77
2017-11-19T09:19:01.826Z,84.54
2017-11-19T09:20:05.988Z,84.73
2017-11-19T09:21:09.819Z,84.87
2017-11-19T09:22:13.605Z,84.30
2017-11-19T09:23:17.509Z,84.69
2017-11-19T09:24:21.293Z,84.81
2017-11-19T09:25:24.964Z,85.19
2017-11-19T09:26:28.903Z,85.65
2017-11-19T09:27:32.521Z,84.79
2017-11-19T09:28:36.223Z,85.15
2017-11-19T09:29:40.079Z,85.22
2017-11-19T09:30:43.959Z,84.57
2017-11-19T09:31:47.844Z,84.55
2017-11-19T09:32:52.056Z,84.50
2017-11-19T09:33:55.903Z,85.02
2017-11-19T09:34:59.728Z,84.92
2017-11-19T09:36:03.571Z,84.54
2017-11-19T09:37:07.349Z,84.80
2017-11-19T09:38:11.176Z,86.03
2017-11-19T09:39:15.237Z,86.18
2017-11-19T09:40:18.870Z,85.86
2017-11-19T09:41:22.785Z,85.85
2017-11-19T09:42:26.529Z,85.54
2017-11-19T09:43:30.230Z,85.84
2017-11-19T09:44:33.971Z,85.51
2017-11-19T09:45:38.036Z,85.31
2017-11-19T09:46:41.847Z,85.75
2017-11-19T09:47:45.661Z,85.65
2017-11-19T09:48:49.508Z,84.87
2017-11-19T09:49:53.344Z,84.06
2017-11-19T09:50:57.147Z,84.21
2017-11-19T09:52:01.320Z,83.77
2017-11-19T09:53:05.111Z,83.07
2017-11-19T09:54:08.972Z,83.51
2017-11-19T09:55:12.695Z,83.44
2017-11-19T09:56:16.361Z,83.00
2017-11-19T09:57:20.059Z,83.24
2017-11-19T09:58:23.773Z,82.89
2017-11-19T09:59:27.412Z,83.64
2017-11-19T10:00:31.330Z,82.96
2017-11-19T10:01:35.159Z,82.91
2017-11-19T10:02:39.017Z,82.60
2017-11-19T10:03:42.888Z,82.21
2017-11-19T10:04:46.720Z,82.05
2017-11-19T10:05:50.515Z,83.29
2017-11-19T10:06:54.359Z,83.54
2017-11-19T10:07:58.163Z,83.57
2017-11-19T10:09:02.064Z,83.71
2017-11-19T10:10:06.168Z,84.46
2017-11-19T10:11:09.972Z,84.59
2017-11-19T10:12:13.779Z,84.43
2017-11-19T10:13:17.886Z,83.73
2017-11-19T10:14:21.726Z,82.96
2017-11-19T10:15:25.608Z,83.47
2017-11-19T10:16:29.721Z,82.88
2017-11-19T10:17:33.539Z,82.60
2017-11-19T10:18:37.383Z,82.52
2017-11-19T10:19:41.249Z,81.97
2017-11-19T10:20:45.106Z,83.05
2017-11-19T10:21:48.975Z,83.21
2017-11-19T10:22:53.018Z,83.71
2017-11-19T10:23:56.892Z,83.02
2017-11-19T10:25:00.682Z,82.36
2017-11-19T10:26:04.500Z,82.29
2017-11-19T10:27:08.373Z,82.20
2017-11-19T10:28:12.207Z,82.24
2017-11-19T10:29:16.386Z,82.21
2017-11-19T10:30:20.199Z,81.95
2017-11-19T10:31:24.829Z,82.29
2017-11-19T10:32:28.665Z,82.10
2017-11-19T10:33:32.612Z,82.21
2017-11-19T10:34:36.409Z,81.89
2017-11-19T10:35:40.548Z,81.65
2017-11-19T10:36:44.396Z,81.25
2017-11-19T10:37:48.220Z,81.10
2017-11-19T10:38:52.043Z,80.37
2017-11-19T10:39:55.882Z,81.32
2017-11-19T10:40:59.708Z,81.38
2017-11-19T10:42:03.892Z,80.34
2017-11-19T10:43:08.409Z,80.70
2017-11-19T10:44:12.286Z,79.55
2017-11-19T10:45:16.176Z,82.63
2017-11-19T10:46:20.128Z,82.79
2017-11-19T10:47:24.006Z,82.28
2017-11-19T10:48:28.221Z,83.25
2017-11-19T10:49:32.199Z,82.55
2017-11-19T10:50:36.375Z,82.34
2017-11-19T10:51:40.649Z,81.39
2017-11-19T10:52:44.448Z,80.84
2017-11-19T10:53:48.302Z,81.45
2017-11-19T10:54:52.429Z,81.76
2017-11-19T10:55:56.305Z,81.81
2017-11-19T10:57:00.105Z,81.73
2017-11-19T10:58:03.956Z,81.26
2017-11-19T11:15:21.432Z,85.12
2017-11-19T11:16:25.513Z,82.86
2017-11-19T11:17:29.445Z,81.35
2017-11-19T11:18:34.120Z,79.04
2017-11-19T11:19:38.876Z,78.71
2017-11-19T11:20:42.993Z,78.71
2017-11-19T11:21:46.838Z,78.34
2017-11-19T11:22:50.695Z,76.93
2017-11-19T11:23:54.624Z,76.72
2017-11-19T11:24:58.438Z,77.38
2017-11-19T11:26:02.190Z,78.34
2017-11-19T11:27:06.015Z,78.89
2017-11-19T11:28:09.740Z,78.17
2017-11-19T11:29:13.660Z,75.76
2017-11-19T11:30:17.336Z,77.06
2017-11-19T11:31:20.999Z,77.62
2017-11-19T11:32:25.007Z,76.89
2017-11-19T11:33:28.886Z,78.35
2017-11-19T11:34:32.688Z,78.05
2017-11-19T11:35:36.921Z,78.45
2017-11-19T11:36:40.621Z,78.63
2017-11-19T11:37:44.812Z,79.10
2017-11-19T11:38:48.940Z,79.51
2017-11-19T11:39:52.800Z,79.60
2017-11-19T11:40:57.141Z,79.73
2017-11-19T11:42:00.910Z,79.29
2017-11-19T11:43:04.788Z,78.40
2017-11-19T11:44:08.506Z,78.82
2017-11-19T11:45:12.701Z,79.30
2017-11-19T11:46:16.660Z,78.95
2017-11-19T11:47:20.595Z,80.65
2017-11-19T11:48:25.385Z,80.49
2017-11-19T11:49:29.168Z,78.99
2017-11-19T11:50:32.967Z,78.30
2017-11-19T11:51:37.406Z,80.39
2017-11-19T11:52:41.264Z,79.86
2017-11-19T11:53:45.070Z,79.87
2017-11-19T11:54:48.871Z,80.28
2017-11-19T11:55:52.702Z,79.63
2017-11-19T11:56:56.531Z,79.19
2017-11-19T11:58:01.306Z,80.54
2017-11-19T11:59:05.208Z,81.30
2017-11-19T12:00:08.867Z,81.05
2017-11-19T12:01:12.701Z,81.68
2017-11-19T12:02:16.559Z,81.86
2017-11-19T12:03:20.452Z,82.45
2017-11-19T12:04:24.600Z,81.40
2017-11-19T12:05:28.519Z,81.95
2017-11-19T12:06:32.286Z,82.52
2017-11-19T12:07:36.101Z,82.15
2017-11-19T12:08:39.889Z,82.70
2017-11-19T12:09:43.721Z,82.52
2017-11-19T12:10:48.023Z,81.39
2017-11-19T12:11:51.890Z,80.49
2017-11-19T12:12:55.778Z,81.31
2017-11-19T12:13:59.666Z,83.02
2017-11-19T12:15:03.676Z,82.85
2017-11-19T12:16:07.737Z,82.91
2017-11-19T12:17:11.896Z,82.11
2017-11-19T12:18:15.703Z,81.36
2017-11-19T12:19:19.628Z,82.20
2017-11-19T12:20:23.537Z,82.28
2017-11-19T12:21:27.579Z,82.21
2017-11-19T12:22:31.768Z,81.92
2017-11-19T12:23:35.659Z,81.48
2017-11-19T12:24:39.591Z,82.44
2017-11-19T12:25:43.473Z,81.73
2017-11-19T12:26:47.414Z,82.04
2017-11-19T12:27:51.279Z,81.99
2017-11-19T12:28:55.774Z,81.27
2017-11-19T12:29:59.607Z,81.47
2017-11-19T12:31:03.599Z,81.31
2017-11-19T12:32:07.549Z,80.48
2017-11-19T12:33:11.744Z,80.76
2017-11-19T12:34:15.670Z,80.44
2017-11-19T12:35:20.028Z,80.54
2017-11-19T12:36:24.199Z,80.08
2017-11-19T12:37:28.192Z,80.35
2017-11-19T12:38:32.688Z,80.82
2017-11-19T12:39:36.705Z,80.86
2017-11-19T12:40:44.781Z,81.03
2017-11-19T12:41:48.666Z,80.62
2017-11-19T12:42:52.518Z,80.44
2017-11-19T12:43:56.464Z,80.48
2017-11-19T12:45:00.339Z,80.05
2017-11-19T12:46:04.195Z,80.54
2017-11-19T12:47:08.336Z,79.63
2017-11-19T12:48:12.199Z,79.80
2017-11-19T12:49:16.066Z,79.67
2017-11-19T12:50:19.932Z,79.54
2017-11-19T12:51:23.846Z,79.18
2017-11-19T12:52:27.620Z,79.35
2017-11-19T12:53:31.973Z,78.42
2017-11-19T12:54:35.888Z,78.25
2017-11-19T12:55:39.793Z,79.27
2017-11-19T12:56:43.714Z,79.60
2017-11-19T12:57:48.649Z,79.78
2017-11-19T12:58:52.544Z,79.43
2017-11-19T12:59:57.024Z,79.61
2017-11-19T13:01:00.885Z,79.47
2017-11-19T13:02:05.734Z,79.10
2017-11-19T13:03:09.600Z,79.00
2017-11-19T13:04:13.546Z,78.61
2017-11-19T13:05:17.222Z,77.49
2017-11-19T13:06:21.181Z,77.15
2017-11-19T13:07:24.876Z,76.75
2017-11-19T13:08:28.680Z,77.47
2017-11-19T13:09:32.460Z,77.87
2017-11-19T13:10:36.816Z,78.43
2017-11-19T13:11:40.580Z,79.14
2017-11-19T13:12:44.706Z,79.03
2017-11-19T13:13:48.515Z,79.49
2017-11-19T13:14:52.405Z,79.25
2017-11-19T13:15:56.440Z,78.32
2017-11-19T13:17:00.304Z,79.02
2017-11-19T13:18:04.254Z,79.02
2017-11-19T13:19:08.427Z,79.50
2017-11-19T13:20:12.261Z,79.85
2017-11-19T13:21:16.228Z,79.85
2017-11-19T13:22:19.970Z,80.60
2017-11-19T13:23:23.781Z,79.77
2017-11-19T13:24:28.409Z,79.48
2017-11-19T13:25:32.265Z,78.71
2017-11-19T13:26:36.389Z,78.56
2017-11-19T13:27:40.267Z,77.35
2017-11-19T13:28:44.252Z,76.45
2017-11-19T13:29:48.565Z,74.01
2017-11-19T13:30:52.780Z,71.70
2017-11-19T13:31:57.233Z,71.70
2017-11-19T13:33:01.179Z,73.79
2017-11-19T13:34:05.075Z,76.03
2017-11-19T13:35:08.889Z,76.24
2017-11-19T13:36:13.264Z,75.81
2017-11-19T13:37:17.193Z,72.74
2017-11-19T13:38:21.079Z,70.20
2017-11-19T13:39:24.868Z,73.24
2017-11-19T13:40:28.692Z,76.28
2017-11-19T13:41:32.577Z,76.31
2017-11-19T13:42:36.787Z,76.39
2017-11-19T13:43:40.561Z,76.44
2017-11-19T13:44:44.424Z,76.35
2017-11-19T13:45:48.278Z,77.00
2017-11-19T13:46:52.027Z,77.25
2017-11-19T13:47:55.782Z,77.26
2017-11-19T13:49:00.011Z,77.41
2017-11-19T13:50:03.824Z,76.75
2017-11-19T13:51:07.678Z,76.92
2017-11-19T13:52:11.458Z,77.56
2017-11-19T13:53:15.240Z,77.88
2017-11-19T13:54:19.111Z,78.43
2017-11-19T13:55:23.239Z,78.98
2017-11-19T13:56:27.364Z,78.94
2017-11-19T13:57:31.077Z,79.36
2017-11-19T13:58:34.836Z,79.37
2017-11-19T13:59:38.603Z,79.32
2017-11-19T14:00:42.396Z,79.35
2017-11-19T14:01:46.736Z,79.11
2017-11-19T14:02:50.530Z,79.00
2017-11-19T14:03:54.620Z,79.05
2017-11-19T14:04:58.985Z,79.52
2017-11-19T14:06:02.906Z,79.81
2017-11-19T14:07:06.809Z,80.39
2017-11-19T14:08:11.146Z,80.37
2017-11-19T14:09:15.087Z,80.39
2017-11-19T14:10:18.944Z,80.65
2017-11-19T14:11:22.778Z,81.11
2017-11-19T14:12:26.662Z,81.43
2017-11-19T14:13:30.472Z,80.72